Wadsworth, Nevada
Current Conditions -  °F | °C
As of 11:55 AM on Monday 24 Nov 2014 (Local Time) from KRNO Reporting Station
Broken Clouds Broken Clouds  
Wind Chill: 46°   Ceiling: 30000
Heat Index: 46°   Visibility: 10mi
Dew Point: 22°   Wind: 0mph
Humidity: 39%   Direction: NA
Pressure: 30.45"   Gusts: NA
Location:  39.63°N, 119.29°W
Report Text: KRNO 241955Z 00000KT 10SM SCT250 BKN300 08/M06 A3045 RMK AO2 SLP314 T00781056
Loading
Personal Weather Stations






























Interactive Weather Map New forecast layout! Learn more

10-Day Weather Forecast

Advertisements
Track Severe Weather on mobile